Time;durP1;ratioP1;P1;durP2;ratioP2;P2;SDS_P1;SDS_P2;PMS_P1;PMS_P2;Temp;Humidity;BMP_temperature;BMP_pressure;BME280_temperature;BME280_humidity;BME280_pressure;Samples;Min_cycle;Max_cycle;Signal;HPM_P1;HPM_P2
2023/08/28 00:02:14;;;;;;;7.80;4.90;;;;;13.60;100626.00;;;;5030217;28;20301;-72
2023/08/28 00:05:01;;;;;;;5.97;4.47;;;;;13.60;100631.00;;;;5018968;28;20664;-69
2023/08/28 00:07:47;;;;;;;7.60;4.97;;;;;13.60;100623.00;;;;5022613;28;20412;-71
2023/08/28 00:10:33;;;;;;;7.20;4.93;;;;;13.70;100635.00;;;;5026845;28;20967;-70
2023/08/28 00:13:20;;;;;;;5.87;5.13;;;;;13.70;100624.00;;;;5026312;28;20698;-72
2023/08/28 00:16:08;;;;;;;7.03;5.30;;;;;13.70;100627.00;;;;5024707;28;20226;-72
2023/08/28 00:18:54;;;;;;;6.30;4.57;;;;;13.70;100625.00;;;;5018528;28;20295;-70
2023/08/28 00:21:40;;;;;;;7.93;5.30;;;;;13.70;100635.00;;;;5019959;28;20285;-70
2023/08/28 00:24:26;;;;;;;6.40;5.07;;;;;13.60;100626.00;;;;5022756;28;20626;-71
2023/08/28 00:27:14;;;;;;;5.90;4.97;;;;;13.60;100631.00;;;;5019851;28;20746;-70
2023/08/28 00:30:01;;;;;;;6.53;5.13;;;;;13.60;100629.00;;;;5015611;28;20234;-71
2023/08/28 00:32:49;;;;;;;7.20;5.33;;;;;13.60;100628.00;;;;5023179;28;20225;-71
2023/08/28 00:35:36;;;;;;;6.30;5.67;;;;;13.50;100638.00;;;;5023454;28;20321;-71
2023/08/28 00:38:22;;;;;;;7.00;5.47;;;;;13.50;100636.00;;;;5019746;28;20786;-71
2023/08/28 00:41:09;;;;;;;9.57;5.40;;;;;13.50;100641.00;;;;5018733;28;20606;-72
2023/08/28 00:43:55;;;;;;;5.50;5.00;;;;;13.60;100636.00;;;;5015636;28;20722;-72
2023/08/28 00:46:42;;;;;;;7.20;5.20;;;;;13.50;100627.00;;;;5033489;28;20291;-72
2023/08/28 00:49:31;;;;;;;7.67;5.53;;;;;13.50;100633.00;;;;5044947;28;20245;-71
2023/08/28 00:52:17;;;;;;;6.83;5.70;;;;;13.40;100627.00;;;;5028671;28;20233;-71
2023/08/28 00:55:05;;;;;;;8.03;5.50;;;;;13.30;100632.00;;;;5027953;28;20244;-70
2023/08/28 00:57:53;;;;;;;7.10;5.60;;;;;13.30;100634.00;;;;5022190;28;20241;-72
2023/08/28 01:00:41;;;;;;;6.63;5.17;;;;;13.30;100636.00;;;;5020419;28;20245;-70
2023/08/28 01:03:28;;;;;;;8.33;5.27;;;;;13.30;100631.00;;;;5021122;28;20237;-72
2023/08/28 01:06:24;;;;;;;9.53;5.63;;;;;13.30;100627.00;;;;5025460;28;20878;-71
2023/08/28 01:09:19;;;;;;;8.30;5.20;;;;;13.30;100618.00;;;;5015181;28;20871;-71
2023/08/28 01:12:13;;;;;;;6.27;4.93;;;;;13.30;100616.00;;;;5022538;28;20237;-71
2023/08/28 01:15:07;;;;;;;6.67;4.83;;;;;13.30;100612.00;;;;5023967;28;20782;-70
2023/08/28 01:17:58;;;;;;;6.70;4.90;;;;;13.20;100619.00;;;;5025560;28;20769;-69
2023/08/28 01:20:47;;;;;;;6.93;4.87;;;;;13.10;100613.00;;;;5020068;28;20240;-71
2023/08/28 01:23:40;;;;;;;5.07;4.57;;;;;13.10;100602.00;;;;5018731;28;20237;-71
2023/08/28 01:26:29;;;;;;;5.77;4.63;;;;;13.10;100613.00;;;;5019682;28;20367;-72
2023/08/28 01:29:16;;;;;;;5.83;4.73;;;;;13.10;100594.00;;;;5023531;28;20233;-71
2023/08/28 01:32:02;;;;;;;6.57;5.23;;;;;13.10;100599.00;;;;5021969;28;20412;-71
2023/08/28 01:34:49;;;;;;;5.80;5.20;;;;;13.10;100601.00;;;;5024195;28;20228;-72
2023/08/28 01:37:43;;;;;;;6.90;5.30;;;;;13.10;100608.00;;;;5018169;28;20226;-71
2023/08/28 01:40:34;;;;;;;7.73;5.20;;;;;13.00;100605.00;;;;5017866;28;20312;-72
2023/08/28 01:43:24;;;;;;;6.80;5.40;;;;;13.10;100604.00;;;;5020370;28;20225;-70
2023/08/28 01:46:12;;;;;;;7.90;5.23;;;;;13.10;100602.00;;;;5022636;28;20236;-71
2023/08/28 01:48:59;;;;;;;7.77;5.40;;;;;13.10;100595.00;;;;5022228;28;20360;-71
2023/08/28 01:51:45;;;;;;;8.67;5.47;;;;;13.10;100607.00;;;;5025039;28;20716;-71
2023/08/28 01:54:31;;;;;;;8.47;5.30;;;;;13.00;100596.00;;;;5021622;28;20609;-71
2023/08/28 01:57:18;;;;;;;6.03;5.20;;;;;13.00;100602.00;;;;5032213;28;20232;-71
2023/08/28 02:00:08;;;;;;;8.50;5.40;;;;;13.10;100603.00;;;;5024397;28;20503;-71
2023/08/28 02:02:55;;;;;;;7.40;5.60;;;;;13.10;100601.00;;;;5028025;28;20241;-70
2023/08/28 02:05:42;;;;;;;9.43;5.63;;;;;13.10;100610.00;;;;5035721;28;20244;-69
2023/08/28 02:08:28;;;;;;;5.60;4.83;;;;;13.10;100593.00;;;;5028061;28;20241;-70
2023/08/28 02:11:15;;;;;;;5.27;4.77;;;;;13.10;100601.00;;;;5022964;28;20229;-71
2023/08/28 02:14:01;;;;;;;6.10;5.43;;;;;13.10;100596.00;;;;5014660;28;20225;-72
2023/08/28 02:16:49;;;;;;;6.60;5.30;;;;;13.00;100601.00;;;;5016356;28;20226;-71
2023/08/28 02:19:35;;;;;;;6.60;5.27;;;;;13.00;100595.00;;;;5016044;28;20229;-73
2023/08/28 02:22:22;;;;;;;6.67;5.60;;;;;13.00;100599.00;;;;5021594;28;20606;-69
2023/08/28 02:25:09;;;;;;;7.53;5.50;;;;;13.00;100599.00;;;;5021047;28;20868;-71
2023/08/28 02:27:57;;;;;;;9.23;5.87;;;;;13.00;100600.00;;;;5022878;28;20311;-71
2023/08/28 02:30:44;;;;;;;6.77;5.57;;;;;12.90;100612.00;;;;5025737;28;20236;-71
2023/08/28 02:33:31;;;;;;;7.93;5.23;;;;;12.90;100611.00;;;;5026933;28;20711;-71
2023/08/28 02:36:17;;;;;;;7.83;5.70;;;;;12.90;100612.00;;;;5025519;28;20256;-71
2023/08/28 02:39:05;;;;;;;6.70;5.57;;;;;12.90;100603.00;;;;5028105;28;20899;-71
2023/08/28 02:41:51;;;;;;;8.40;5.30;;;;;12.90;100610.00;;;;5016279;28;20237;-71
2023/08/28 02:44:37;;;;;;;6.70;5.37;;;;;12.90;100610.00;;;;5021573;28;20229;-71
2023/08/28 02:47:24;;;;;;;9.97;5.10;;;;;12.90;100600.00;;;;5023901;28;20241;-72
2023/08/28 02:50:12;;;;;;;8.87;5.03;;;;;12.90;100593.00;;;;5023719;28;20925;-71
2023/08/28 02:52:58;;;;;;;8.23;5.23;;;;;12.80;100587.00;;;;5028424;28;20250;-71
2023/08/28 02:56:26;;;;;;;11.00;5.37;;;;;12.80;100598.00;;;;5018090;28;20229;-71
2023/08/28 02:59:13;;;;;;;11.90;5.10;;;;;12.90;100595.00;;;;5014007;28;20287;-72
2023/08/28 03:01:59;;;;;;;8.17;4.60;;;;;12.80;100603.00;;;;5024419;28;20240;-71
2023/08/28 03:04:46;;;;;;;6.00;4.87;;;;;12.70;100595.00;;;;5023816;28;20241;-71
2023/08/28 03:07:33;;;;;;;6.47;4.73;;;;;12.70;100605.00;;;;5025551;28;20329;-71
2023/08/28 03:10:19;;;;;;;6.23;5.00;;;;;12.60;100618.00;;;;5036128;28;20252;-72
2023/08/28 03:13:06;;;;;;;5.40;4.43;;;;;12.70;100624.00;;;;5052354;28;20231;-71
2023/08/28 03:15:52;;;;;;;7.40;5.33;;;;;12.70;100623.00;;;;5022625;28;20226;-72
2023/08/28 03:18:38;;;;;;;9.10;5.20;;;;;12.60;100625.00;;;;5027340;28;20237;-71
2023/08/28 03:21:25;;;;;;;7.43;4.90;;;;;12.60;100628.00;;;;5040700;28;20314;-71
2023/08/28 03:24:12;;;;;;;8.60;5.00;;;;;12.60;100622.00;;;;5041139;28;20299;-71
2023/08/28 03:26:59;;;;;;;9.53;4.80;;;;;12.60;100625.00;;;;5031985;28;20241;-71
2023/08/28 03:29:46;;;;;;;9.47;5.33;;;;;12.60;100635.00;;;;5027000;28;20278;-71
2023/08/28 03:32:32;;;;;;;6.40;5.30;;;;;12.60;100635.00;;;;5042786;28;20229;-72
2023/08/28 03:35:19;;;;;;;10.07;5.67;;;;;12.60;100640.00;;;;5026854;28;20232;-71
2023/08/28 03:38:05;;;;;;;9.07;5.53;;;;;12.60;100648.00;;;;5033654;28;20248;-70
2023/08/28 03:40:53;;;;;;;10.67;5.33;;;;;12.60;100653.00;;;;5024230;28;20714;-71
2023/08/28 03:43:40;;;;;;;7.40;5.40;;;;;12.50;100665.00;;;;5018423;28;20232;-71
2023/08/28 03:46:26;;;;;;;8.60;5.40;;;;;12.50;100658.00;;;;5036559;28;20252;-71
2023/08/28 03:49:13;;;;;;;7.67;5.90;;;;;12.40;100657.00;;;;5032517;28;20367;-71
2023/08/28 03:51:59;;;;;;;9.33;5.47;;;;;12.50;100663.00;;;;5038063;28;20274;-71
2023/08/28 03:54:46;;;;;;;8.30;5.93;;;;;12.50;100665.00;;;;5030581;28;20244;-71
2023/08/28 03:57:34;;;;;;;7.47;5.97;;;;;12.50;100659.00;;;;5016320;28;20272;-71
2023/08/28 04:00:21;;;;;;;9.67;7.00;;;;;12.50;100651.00;;;;5031209;28;20241;-71
2023/08/28 04:03:07;;;;;;;14.97;6.77;;;;;12.50;100653.00;;;;5038730;28;20228;-71
2023/08/28 04:05:54;;;;;;;8.83;7.10;;;;;12.40;100650.00;;;;5023474;28;20229;-72
2023/08/28 04:08:40;;;;;;;9.77;6.87;;;;;12.40;100662.00;;;;5020762;28;20352;-72
2023/08/28 04:11:27;;;;;;;12.23;7.33;;;;;12.50;100665.00;;;;5021838;28;20241;-70
2023/08/28 04:14:15;;;;;;;14.13;7.33;;;;;12.40;100663.00;;;;5025561;28;20364;-71
2023/08/28 04:17:01;;;;;;;10.53;7.70;;;;;12.40;100651.00;;;;5026417;28;20232;-72
2023/08/28 04:19:52;;;;;;;9.33;6.97;;;;;12.40;100642.00;;;;5029532;28;20396;-71
2023/08/28 04:22:40;;;;;;;12.13;7.80;;;;;12.40;100647.00;;;;5042779;28;20239;-72
2023/08/28 04:25:30;;;;;;;9.73;7.30;;;;;12.40;100644.00;;;;5028132;28;20295;-71
2023/08/28 04:28:18;;;;;;;8.93;6.67;;;;;12.40;100636.00;;;;5036939;28;20327;-72
2023/08/28 04:31:09;;;;;;;9.77;6.60;;;;;12.40;100643.00;;;;5037837;28;20295;-71
2023/08/28 04:33:55;;;;;;;8.90;7.10;;;;;12.40;100636.00;;;;5020472;28;20923;-71
2023/08/28 04:36:41;;;;;;;9.07;7.23;;;;;12.40;100639.00;;;;5020490;28;20290;-70
2023/08/28 04:39:28;;;;;;;9.13;6.50;;;;;12.30;100638.00;;;;5021864;28;20742;-72
2023/08/28 04:42:15;;;;;;;12.00;7.13;;;;;12.40;100630.00;;;;5021217;28;20230;-72
2023/08/28 04:45:02;;;;;;;8.27;6.30;;;;;12.40;100626.00;;;;5023976;28;20256;-71
2023/08/28 04:47:50;;;;;;;9.07;6.93;;;;;12.30;100626.00;;;;5017283;28;20240;-72
2023/08/28 04:50:36;;;;;;;10.50;6.70;;;;;12.30;100630.00;;;;5032336;28;20237;-71
2023/08/28 04:53:23;;;;;;;10.70;6.60;;;;;12.30;100627.00;;;;5023116;28;20432;-70
2023/08/28 04:56:10;;;;;;;7.30;6.10;;;;;12.30;100621.00;;;;5023118;28;20356;-71
2023/08/28 04:58:56;;;;;;;10.07;6.90;;;;;12.20;100640.00;;;;5023827;28;20316;-71
2023/08/28 05:01:42;;;;;;;12.50;6.40;;;;;12.30;100634.00;;;;5032845;28;20992;-69
2023/08/28 05:04:31;;;;;;;9.63;6.70;;;;;12.30;100637.00;;;;5022880;28;20352;-69
2023/08/28 05:07:17;;;;;;;8.80;6.80;;;;;12.30;100633.00;;;;5020230;28;20232;-71
2023/08/28 05:10:04;;;;;;;11.43;7.33;;;;;12.40;100631.00;;;;5021069;28;20229;-71
2023/08/28 05:12:51;;;;;;;9.13;6.50;;;;;12.40;100628.00;;;;5027771;28;20229;-70
2023/08/28 05:15:38;;;;;;;12.57;8.03;;;;;12.50;100631.00;;;;5030952;28;20233;-69
2023/08/28 05:18:24;;;;;;;10.63;7.93;;;;;12.50;100631.00;;;;5038980;28;20742;-69
2023/08/28 05:21:11;;;;;;;15.93;8.50;;;;;12.70;100634.00;;;;5030869;28;20233;-71
2023/08/28 05:23:58;;;;;;;11.77;8.70;;;;;12.70;100623.00;;;;5022204;28;20300;-71
2023/08/28 05:26:44;;;;;;;12.60;8.30;;;;;12.80;100624.00;;;;5037824;28;20236;-70
2023/08/28 05:29:31;;;;;;;12.50;8.90;;;;;12.80;100626.00;;;;5014108;28;20242;-72
2023/08/28 05:32:18;;;;;;;12.83;8.50;;;;;12.90;100626.00;;;;5027983;28;20703;-70
2023/08/28 05:35:06;;;;;;;20.77;9.70;;;;;12.90;100636.00;;;;5017760;28;20233;-70
2023/08/28 05:37:53;;;;;;;14.70;9.20;;;;;13.00;100637.00;;;;5022568;28;20300;-72
2023/08/28 05:40:40;;;;;;;15.07;9.57;;;;;13.10;100647.00;;;;5023465;28;20256;-71
2023/08/28 05:43:27;;;;;;;16.47;9.80;;;;;13.10;100656.00;;;;5020463;28;20245;-71
2023/08/28 05:46:13;;;;;;;12.77;9.57;;;;;13.20;100655.00;;;;5044310;28;20236;-69
2023/08/28 05:48:59;;;;;;;17.73;10.30;;;;;13.20;100655.00;;;;5034277;28;20241;-71
2023/08/28 05:51:46;;;;;;;17.63;10.93;;;;;13.30;100655.00;;;;5029746;28;20232;-73
2023/08/28 05:54:33;;;;;;;16.07;10.57;;;;;13.40;100654.00;;;;5019586;28;20233;-73
2023/08/28 05:57:20;;;;;;;13.73;9.93;;;;;13.40;100664.00;;;;5033234;28;20282;-72
2023/08/28 06:00:09;;;;;;;15.87;10.23;;;;;13.50;100659.00;;;;5027676;28;20233;-72
2023/08/28 06:02:55;;;;;;;17.80;10.90;;;;;13.50;100667.00;;;;5026715;28;20577;-73
2023/08/28 06:05:42;;;;;;;16.30;10.77;;;;;13.60;100655.00;;;;5024316;28;20359;-71
2023/08/28 06:08:28;;;;;;;22.57;11.20;;;;;13.60;100671.00;;;;5028214;28;20273;-73
2023/08/28 06:11:16;;;;;;;21.83;12.77;;;;;13.70;100677.00;;;;5015461;28;20245;-72
2023/08/28 06:14:03;;;;;;;24.90;13.00;;;;;13.80;100682.00;;;;5012567;28;20299;-72
2023/08/28 06:16:50;;;;;;;22.43;13.37;;;;;13.80;100668.00;;;;5022113;28;20718;-72
2023/08/28 06:19:36;;;;;;;23.90;12.83;;;;;13.90;100689.00;;;;5020851;28;20276;-72
2023/08/28 06:22:23;;;;;;;26.83;13.60;;;;;14.00;100672.00;;;;5035434;28;20336;-72
2023/08/28 06:25:10;;;;;;;24.13;14.03;;;;;14.10;100679.00;;;;5023874;28;20821;-72
2023/08/28 06:27:58;;;;;;;26.13;14.70;;;;;14.20;100674.00;;;;5026839;28;20245;-72
2023/08/28 06:30:44;;;;;;;24.23;14.17;;;;;14.30;100672.00;;;;5017732;28;20244;-72
2023/08/28 06:33:31;;;;;;;24.20;13.70;;;;;14.30;100675.00;;;;5021403;28;20306;-70
2023/08/28 06:36:17;;;;;;;19.27;12.63;;;;;14.30;100686.00;;;;5019495;28;20229;-72
2023/08/28 06:39:04;;;;;;;21.67;12.30;;;;;14.40;100680.00;;;;5021348;28;20240;-72
2023/08/28 06:41:50;;;;;;;21.77;12.77;;;;;14.50;100675.00;;;;5023133;28;20241;-72
2023/08/28 06:44:38;;;;;;;17.83;12.13;;;;;14.50;100679.00;;;;5020491;28;20542;-71
2023/08/28 06:47:25;;;;;;;20.73;11.90;;;;;14.60;100664.00;;;;5015824;28;20233;-71
2023/08/28 06:50:11;;;;;;;20.23;12.27;;;;;14.70;100665.00;;;;5020382;28;20221;-71
2023/08/28 06:52:57;;;;;;;21.57;13.80;;;;;14.80;100675.00;;;;5018795;28;20230;-69
2023/08/28 06:55:44;;;;;;;19.53;12.57;;;;;14.90;100678.00;;;;5023613;28;20238;-70
2023/08/28 06:58:30;;;;;;;20.33;12.57;;;;;15.00;100674.00;;;;5015460;28;20298;-69
2023/08/28 07:01:18;;;;;;;22.83;14.00;;;;;15.10;100666.00;;;;5043323;28;20224;-69
2023/08/28 07:04:05;;;;;;;21.00;13.17;;;;;15.10;100663.00;;;;5019915;28;20231;-69
2023/08/28 07:06:52;;;;;;;19.70;13.03;;;;;15.20;100666.00;;;;5022181;28;20727;-69
2023/08/28 07:09:39;;;;;;;18.90;12.60;;;;;15.20;100660.00;;;;5021245;28;20360;-68
2023/08/28 07:12:25;;;;;;;20.27;13.23;;;;;15.20;100655.00;;;;5024296;28;20276;-70
2023/08/28 07:15:53;;;;;;;19.40;13.67;;;;;15.30;100651.00;;;;5014169;28;20230;-70
2023/08/28 07:18:43;;;;;;;21.00;13.00;;;;;15.40;100665.00;;;;5008386;28;20258;-69
2023/08/28 07:21:29;;;;;;;21.57;12.23;;;;;15.40;100662.00;;;;5021685;28;20233;-68
2023/08/28 07:24:16;;;;;;;23.90;13.70;;;;;15.40;100659.00;;;;5022038;28;20309;-70
2023/08/28 07:27:02;;;;;;;19.60;12.50;;;;;15.50;100670.00;;;;5023769;28;20233;-71
2023/08/28 07:29:49;;;;;;;19.60;13.00;;;;;15.50;100666.00;;;;5024953;28;20254;-70
2023/08/28 07:32:35;;;;;;;19.27;12.53;;;;;15.60;100669.00;;;;5026391;28;20235;-72
2023/08/28 07:35:23;;;;;;;21.53;12.80;;;;;15.60;100659.00;;;;5022621;28;20374;-70
2023/08/28 07:38:09;;;;;;;17.93;12.13;;;;;15.60;100662.00;;;;5019662;28;20244;-72
2023/08/28 07:40:56;;;;;;;17.03;11.70;;;;;15.70;100664.00;;;;5021298;28;20365;-72
2023/08/28 07:43:42;;;;;;;17.17;11.87;;;;;15.70;100667.00;;;;5014239;28;20327;-72
2023/08/28 07:46:30;;;;;;;16.90;11.27;;;;;15.80;100661.00;;;;5021986;28;20666;-72
2023/08/28 07:49:18;;;;;;;15.93;11.13;;;;;15.80;100666.00;;;;5031050;28;20872;-73
2023/08/28 07:52:06;;;;;;;19.37;11.03;;;;;15.90;100670.00;;;;5017218;28;20655;-72
2023/08/28 07:54:52;;;;;;;16.10;11.67;;;;;16.00;100662.00;;;;5025816;28;20282;-72
2023/08/28 07:57:39;;;;;;;19.17;11.90;;;;;16.10;100674.00;;;;5026648;28;20230;-71
2023/08/28 08:00:26;;;;;;;18.47;11.20;;;;;16.20;100680.00;;;;5024729;28;20244;-72
2023/08/28 08:03:12;;;;;;;17.23;11.37;;;;;16.30;100684.00;;;;5023290;28;20249;-72
2023/08/28 08:05:59;;;;;;;15.87;11.10;;;;;16.30;100674.00;;;;5023699;28;20285;-72
2023/08/28 08:08:48;;;;;;;15.53;11.37;;;;;16.30;100677.00;;;;5026330;28;20239;-72
2023/08/28 08:11:34;;;;;;;15.47;10.53;;;;;16.30;100685.00;;;;5026267;28;20368;-71
2023/08/28 08:14:22;;;;;;;16.47;10.73;;;;;16.40;100685.00;;;;5023392;28;20244;-72
2023/08/28 08:17:09;;;;;;;12.70;10.27;;;;;16.50;100684.00;;;;5029579;28;20597;-71
2023/08/28 08:19:55;;;;;;;16.57;11.87;;;;;16.60;100680.00;;;;5025015;28;20609;-70
2023/08/28 08:22:43;;;;;;;16.70;11.87;;;;;16.60;100688.00;;;;5019198;28;20312;-72
2023/08/28 08:25:31;;;;;;;15.37;10.63;;;;;16.60;100676.00;;;;5024173;28;20348;-72
2023/08/28 08:28:17;;;;;;;18.37;10.77;;;;;16.70;100660.00;;;;5026083;28;20233;-72
2023/08/28 08:31:03;;;;;;;15.00;10.77;;;;;16.80;100667.00;;;;5026483;28;20272;-72
2023/08/28 08:33:51;;;;;;;18.90;12.10;;;;;16.80;100666.00;;;;5042864;28;20228;-74
2023/08/28 08:36:39;;;;;;;21.50;11.00;;;;;16.90;100667.00;;;;5045745;28;20278;-73
2023/08/28 08:39:26;;;;;;;15.40;10.67;;;;;17.00;100680.00;;;;5035612;28;20780;-72
2023/08/28 08:42:15;;;;;;;18.07;10.90;;;;;17.20;100676.00;;;;5021313;28;20296;-72
2023/08/28 08:45:01;;;;;;;16.07;10.53;;;;;17.40;100683.00;;;;5027879;28;20295;-72
2023/08/28 08:47:53;;;;;;;12.60;9.70;;;;;17.60;100684.00;;;;5024484;28;20221;-67
2023/08/28 08:50:41;;;;;;;13.37;9.53;;;;;17.60;100683.00;;;;5028339;28;20241;-70
2023/08/28 08:53:44;;;;;;;16.83;10.13;;;;;17.80;100680.00;;;;5025492;28;20229;-72
2023/08/28 08:56:33;;;;;;;12.13;8.77;;;;;17.90;100678.00;;;;5022638;28;20229;-71
2023/08/28 08:59:21;;;;;;;12.77;7.43;;;;;18.00;100685.00;;;;5018063;28;20229;-71
2023/08/28 09:02:09;;;;;;;6.40;5.70;;;;;17.90;100684.00;;;;5024704;28;20292;-72
2023/08/28 09:04:57;;;;;;;7.60;6.40;;;;;17.90;100679.00;;;;5025445;28;20734;-71
2023/08/28 09:07:45;;;;;;;7.67;5.60;;;;;18.00;100672.00;;;;5024985;28;20695;-71
2023/08/28 09:10:32;;;;;;;8.30;6.30;;;;;18.30;100671.00;;;;5029355;28;20237;-72
2023/08/28 09:13:18;;;;;;;9.43;6.83;;;;;18.50;100668.00;;;;5017493;28;20229;-72
2023/08/28 09:16:05;;;;;;;6.97;5.43;;;;;18.70;100676.00;;;;5021648;28;20922;-72
2023/08/28 09:18:53;;;;;;;6.17;5.13;;;;;18.90;100674.00;;;;5022102;28;20237;-70
2023/08/28 09:21:39;;;;;;;6.80;5.73;;;;;19.00;100672.00;;;;5023751;28;20244;-72
2023/08/28 09:24:25;;;;;;;5.87;5.20;;;;;19.20;100679.00;;;;5020287;28;20762;-72
2023/08/28 09:27:13;;;;;;;6.60;4.23;;;;;19.30;100681.00;;;;5034497;28;20424;-70
2023/08/28 09:29:59;;;;;;;3.20;2.90;;;;;19.30;100678.00;;;;5042114;28;20240;-71
2023/08/28 09:32:47;;;;;;;4.07;2.67;;;;;19.30;100681.00;;;;5041875;28;20356;-71
2023/08/28 09:35:37;;;;;;;4.87;2.83;;;;;19.40;100680.00;;;;5018417;28;20306;-71
2023/08/28 09:38:26;;;;;;;5.13;2.80;;;;;19.50;100677.00;;;;5016637;28;20234;-71
2023/08/28 09:41:12;;;;;;;5.00;3.67;;;;;19.60;100688.00;;;;5038200;28;20231;-71
2023/08/28 09:43:59;;;;;;;5.63;4.03;;;;;19.60;100678.00;;;;5038319;28;20321;-71
2023/08/28 09:46:48;;;;;;;7.40;4.20;;;;;19.60;100680.00;;;;5016394;28;20252;-71
2023/08/28 09:49:44;;;;;;;7.63;3.23;;;;;19.50;100690.00;;;;5018911;28;20254;-70
2023/08/28 09:52:30;;;;;;;3.40;3.10;;;;;19.50;100679.00;;;;5018548;28;20285;-70
2023/08/28 09:55:17;;;;;;;5.17;3.43;;;;;19.50;100679.00;;;;5021095;28;20234;-70
2023/08/28 09:58:08;;;;;;;3.90;3.43;;;;;19.50;100683.00;;;;5031704;28;20234;-70
2023/08/28 10:00:56;;;;;;;5.33;3.50;;;;;19.50;100674.00;;;;5018867;28;20234;-71
2023/08/28 10:03:43;;;;;;;4.37;3.00;;;;;19.60;100671.00;;;;5038834;28;20744;-71
2023/08/28 10:06:34;;;;;;;6.10;3.00;;;;;19.70;100670.00;;;;5025407;28;20231;-71
2023/08/28 10:09:22;;;;;;;2.93;2.43;;;;;19.90;100668.00;;;;5018633;28;20229;-70
2023/08/28 10:12:09;;;;;;;4.63;2.33;;;;;19.90;100670.00;;;;5020864;28;20610;-71
2023/08/28 10:14:57;;;;;;;3.00;2.20;;;;;20.00;100662.00;;;;5020157;28;20668;-73
2023/08/28 10:17:44;;;;;;;4.03;2.20;;;;;20.20;100661.00;;;;5025735;28;20299;-73
2023/08/28 10:20:33;;;;;;;3.00;2.60;;;;;20.50;100658.00;;;;5019307;28;20845;-71
2023/08/28 10:23:23;;;;;;;5.33;2.60;;;;;20.50;100658.00;;;;5022538;28;20736;-71
2023/08/28 10:26:12;;;;;;;4.10;2.47;;;;;20.40;100644.00;;;;5023938;28;20299;-71
2023/08/28 10:29:00;;;;;;;6.17;2.93;;;;;20.60;100648.00;;;;5021938;28;20276;-72
2023/08/28 10:31:47;;;;;;;9.43;2.77;;;;;20.50;100642.00;;;;5012137;28;20313;-71
2023/08/28 10:34:35;;;;;;;4.27;2.63;;;;;20.60;100644.00;;;;5023655;28;20263;-72
2023/08/28 10:37:22;;;;;;;3.73;2.60;;;;;20.60;100645.00;;;;5020997;28;20224;-71
2023/08/28 10:40:18;;;;;;;3.83;2.40;;;;;20.50;100648.00;;;;5021609;28;20236;-71
2023/08/28 10:43:05;;;;;;;3.37;2.30;;;;;20.70;100645.00;;;;5025569;28;20327;-71
2023/08/28 10:45:55;;;;;;;3.93;2.80;;;;;20.60;100655.00;;;;5032327;28;20307;-72
2023/08/28 10:48:42;;;;;;;2.50;2.30;;;;;20.70;100655.00;;;;5029495;28;20239;-72
2023/08/28 10:51:32;;;;;;;4.90;2.10;;;;;20.80;100662.00;;;;5031518;28;20291;-71
2023/08/28 10:54:19;;;;;;;2.93;2.10;;;;;20.70;100655.00;;;;5039034;28;20604;-71
2023/08/28 10:57:10;;;;;;;3.57;1.63;;;;;20.70;100647.00;;;;5034325;28;20244;-72
2023/08/28 11:00:15;;;;;;;2.33;1.80;;;;;20.80;100644.00;;;;5024408;28;20232;-71
2023/08/28 11:03:08;;;;;;;3.13;2.10;;;;;20.80;100650.00;;;;5026855;28;20328;-70
2023/08/28 11:06:29;;;;;;;4.00;1.70;;;;;21.00;100651.00;;;;5025904;28;20356;-69
2023/08/28 11:09:37;;;;;;;2.00;1.80;;;;;21.10;100654.00;;;;5026954;28;20657;-72
2023/08/28 11:12:49;;;;;;;4.10;2.40;;;;;21.10;100655.00;;;;5027190;28;20232;-68
2023/08/28 11:15:39;;;;;;;4.07;2.40;;;;;21.20;100647.00;;;;5020310;28;20232;-69
2023/08/28 11:18:28;;;;;;;2.73;2.10;;;;;21.20;100655.00;;;;5026747;28;20232;-71
2023/08/28 11:21:16;;;;;;;3.40;1.93;;;;;21.30;100654.00;;;;5027713;28;20240;-71
2023/08/28 11:24:03;;;;;;;1.80;1.70;;;;;21.20;100652.00;;;;5020666;28;20364;-74
2023/08/28 11:26:49;;;;;;;1.60;1.50;;;;;21.30;100657.00;;;;5025189;28;20611;-72
2023/08/28 11:29:38;;;;;;;2.07;1.80;;;;;21.30;100660.00;;;;5026476;28;20296;-72
2023/08/28 11:32:24;;;;;;;2.20;2.00;;;;;21.30;100657.00;;;;5036189;28;20240;-72
2023/08/28 11:35:13;;;;;;;2.13;2.00;;;;;21.40;100666.00;;;;5024973;28;20240;-72
2023/08/28 11:37:59;;;;;;;3.67;2.10;;;;;21.50;100668.00;;;;5020366;28;20256;-73
2023/08/28 11:40:46;;;;;;;3.30;1.90;;;;;21.60;100670.00;;;;5023628;28;20233;-73
2023/08/28 11:43:36;;;;;;;2.67;1.90;;;;;21.80;100668.00;;;;5025390;28;20364;-72
2023/08/28 11:46:26;;;;;;;2.43;2.17;;;;;21.80;100666.00;;;;5022620;28;20304;-74
2023/08/28 11:49:14;;;;;;;3.60;1.90;;;;;21.70;100676.00;;;;5015616;28;20254;-73
2023/08/28 11:52:02;;;;;;;4.07;1.80;;;;;21.60;100674.00;;;;5034153;28;20241;-72
2023/08/28 11:54:51;;;;;;;3.07;1.90;;;;;21.70;100669.00;;;;5019367;28;20645;-71
2023/08/28 11:57:39;;;;;;;2.57;1.60;;;;;22.00;100667.00;;;;5018307;28;20237;-73
2023/08/28 12:00:26;;;;;;;2.13;1.93;;;;;22.00;100676.00;;;;5033850;28;20232;-72
2023/08/28 12:03:21;;;;;;;3.20;2.40;;;;;21.70;100686.00;;;;5026956;28;20232;-72
2023/08/28 12:06:08;;;;;;;2.27;1.90;;;;;21.40;100686.00;;;;5015346;28;20299;-72
2023/08/28 12:08:56;;;;;;;6.97;2.20;;;;;21.30;100690.00;;;;5024642;28;20304;-73
2023/08/28 12:11:43;;;;;;;2.40;2.00;;;;;21.40;100689.00;;;;5015033;28;20237;-74
2023/08/28 12:14:34;;;;;;;3.57;1.77;;;;;21.30;100694.00;;;;5024610;28;20233;-73
2023/08/28 12:17:23;;;;;;;2.20;2.00;;;;;21.50;100698.00;;;;5025250;28;20242;-72
2023/08/28 12:20:19;;;;;;;2.13;1.90;;;;;21.60;100698.00;;;;5015948;28;20608;-72
2023/08/28 12:23:07;;;;;;;2.10;1.90;;;;;21.60;100694.00;;;;5025908;28;20229;-72
2023/08/28 12:25:55;;;;;;;2.43;1.70;;;;;21.70;100684.00;;;;5040356;28;20225;-70
2023/08/28 12:28:42;;;;;;;3.63;2.17;;;;;21.90;100686.00;;;;5018424;28;20307;-70
2023/08/28 12:31:32;;;;;;;2.70;2.00;;;;;21.90;100698.00;;;;5022420;28;20241;-71
2023/08/28 12:34:18;;;;;;;2.23;1.70;;;;;21.80;100683.00;;;;5020509;28;20233;-73
2023/08/28 12:37:07;;;;;;;2.03;1.53;;;;;21.90;100686.00;;;;5024194;28;20229;-71
2023/08/28 12:39:54;;;;;;;2.23;1.60;;;;;21.90;100684.00;;;;5022416;28;20335;-72
2023/08/28 12:42:41;;;;;;;1.87;1.77;;;;;21.80;100675.00;;;;5019851;28;20654;-72
2023/08/28 12:45:27;;;;;;;1.80;1.70;;;;;21.90;100678.00;;;;5024815;28;20241;-73
2023/08/28 12:48:14;;;;;;;1.63;1.53;;;;;22.00;100670.00;;;;5029310;28;20236;-72
2023/08/28 12:51:00;;;;;;;4.13;2.00;;;;;22.00;100672.00;;;;5033861;28;20237;-73
2023/08/28 12:53:48;;;;;;;2.27;1.70;;;;;22.10;100664.00;;;;5023211;28;20268;-72
2023/08/28 12:56:35;;;;;;;2.40;1.57;;;;;22.30;100664.00;;;;5025338;28;20229;-71
2023/08/28 12:59:22;;;;;;;3.20;1.63;;;;;22.50;100667.00;;;;5040610;28;20232;-70
2023/08/28 13:02:09;;;;;;;2.60;1.87;;;;;22.50;100669.00;;;;5028140;28;20241;-70
2023/08/28 13:04:56;;;;;;;2.10;2.00;;;;;22.60;100663.00;;;;5025457;28;20225;-72
2023/08/28 13:07:43;;;;;;;2.50;1.70;;;;;22.70;100655.00;;;;5022707;28;20237;-72
2023/08/28 13:10:31;;;;;;;179.67;44.67;;;;;22.70;100673.00;;;;5023401;28;20287;-70
2023/08/28 13:13:23;;;;;;;19.70;7.10;;;;;22.80;100657.00;;;;5024065;28;20872;-72
2023/08/28 13:16:10;;;;;;;2.10;1.90;;;;;22.90;100653.00;;;;5025320;28;20237;-72
2023/08/28 13:18:56;;;;;;;3.73;1.90;;;;;23.00;100649.00;;;;5022171;28;21003;-72
2023/08/28 13:21:43;;;;;;;4.60;2.20;;;;;23.00;100639.00;;;;5017764;28;20229;-71
2023/08/28 13:24:31;;;;;;;4.60;1.80;;;;;23.20;100645.00;;;;5021474;28;20356;-73
2023/08/28 13:27:30;;;;;;;4.93;1.70;;;;;23.30;100648.00;;;;5024913;28;20284;-72
2023/08/28 13:30:16;;;;;;;2.60;1.60;;;;;23.50;100655.00;;;;5016071;28;20241;-73
2023/08/28 13:33:04;;;;;;;2.97;1.70;;;;;23.50;100654.00;;;;5023513;28;20872;-72
2023/08/28 13:35:51;;;;;;;1.80;1.60;;;;;23.70;100646.00;;;;5018773;28;20235;-72
2023/08/28 13:38:37;;;;;;;3.23;1.80;;;;;23.80;100648.00;;;;5019966;28;20690;-73
2023/08/28 13:41:24;;;;;;;1.70;1.60;;;;;23.80;100644.00;;;;5026217;28;20237;-76
2023/08/28 13:44:11;;;;;;;1.97;1.70;;;;;23.70;100648.00;;;;5025419;28;20229;-74
2023/08/28 13:46:58;;;;;;;2.60;1.80;;;;;23.70;100650.00;;;;5022223;28;20222;-76